sensor_id;sensor_type;location;lat;lon;timestamp;temperature;humidity
4874;DHT22;2451;49.970;9.068;2023-09-12T00:00:54;19.30;99.90
4874;DHT22;2451;49.970;9.068;2023-09-12T00:03:21;19.20;99.90
4874;DHT22;2451;49.970;9.068;2023-09-12T00:05:54;19.20;99.90
4874;DHT22;2451;49.970;9.068;2023-09-12T00:08:21;19.20;99.90
4874;DHT22;2451;49.970;9.068;2023-09-12T00:10:46;19.10;99.90
4874;DHT22;2451;49.970;9.068;2023-09-12T00:13:12;19.10;99.90
4874;DHT22;2451;49.970;9.068;2023-09-12T00:15:37;19.10;99.90
4874;DHT22;2451;49.970;9.068;2023-09-12T00:18:03;19.10;99.90
4874;DHT22;2451;49.970;9.068;2023-09-12T00:20:29;19.10;99.90
4874;DHT22;2451;49.970;9.068;2023-09-12T00:22:55;19.20;99.90
4874;DHT22;2451;49.970;9.068;2023-09-12T00:25:21;19.20;99.90
4874;DHT22;2451;49.970;9.068;2023-09-12T00:27:47;19.20;99.90
4874;DHT22;2451;49.970;9.068;2023-09-12T00:30:14;19.20;99.90
4874;DHT22;2451;49.970;9.068;2023-09-12T00:32:40;19.10;99.90
4874;DHT22;2451;49.970;9.068;2023-09-12T00:35:05;19.10;99.90
4874;DHT22;2451;49.970;9.068;2023-09-12T00:37:31;19.10;99.90
4874;DHT22;2451;49.970;9.068;2023-09-12T00:39:57;19.10;99.90
4874;DHT22;2451;49.970;9.068;2023-09-12T00:42:25;19.00;99.90
4874;DHT22;2451;49.970;9.068;2023-09-12T00:44:51;19.00;99.90
4874;DHT22;2451;49.970;9.068;2023-09-12T00:47:16;19.00;99.90
4874;DHT22;2451;49.970;9.068;2023-09-12T00:49:43;19.00;99.90
4874;DHT22;2451;49.970;9.068;2023-09-12T00:52:09;19.00;99.90
4874;DHT22;2451;49.970;9.068;2023-09-12T00:54:38;19.00;99.90
4874;DHT22;2451;49.970;9.068;2023-09-12T00:57:04;19.00;99.90
4874;DHT22;2451;49.970;9.068;2023-09-12T00:59:30;18.90;99.90
4874;DHT22;2451;49.970;9.068;2023-09-12T01:01:56;18.90;99.90
4874;DHT22;2451;49.970;9.068;2023-09-12T01:04:22;18.90;99.90
4874;DHT22;2451;49.970;9.068;2023-09-12T01:06:48;18.80;99.90
4874;DHT22;2451;49.970;9.068;2023-09-12T01:09:14;18.80;99.90
4874;DHT22;2451;49.970;9.068;2023-09-12T01:11:40;18.80;99.90
4874;DHT22;2451;49.970;9.068;2023-09-12T01:14:06;18.70;99.90
4874;DHT22;2451;49.970;9.068;2023-09-12T01:16:32;18.70;99.90
4874;DHT22;2451;49.970;9.068;2023-09-12T01:18:57;18.70;99.90
4874;DHT22;2451;49.970;9.068;2023-09-12T01:21:44;18.60;99.90
4874;DHT22;2451;49.970;9.068;2023-09-12T01:27:22;18.60;99.90
4874;DHT22;2451;49.970;9.068;2023-09-12T01:29:51;18.60;99.90
4874;DHT22;2451;49.970;9.068;2023-09-12T01:32:17;18.60;99.90
4874;DHT22;2451;49.970;9.068;2023-09-12T01:34:44;18.50;99.90
4874;DHT22;2451;49.970;9.068;2023-09-12T01:37:09;18.50;99.90
4874;DHT22;2451;49.970;9.068;2023-09-12T01:39:35;18.40;99.90
4874;DHT22;2451;49.970;9.068;2023-09-12T01:42:01;18.40;99.90
4874;DHT22;2451;49.970;9.068;2023-09-12T01:44:28;18.30;99.90
4874;DHT22;2451;49.970;9.068;2023-09-12T01:46:58;18.30;99.90
4874;DHT22;2451;49.970;9.068;2023-09-12T01:49:27;18.30;99.90
4874;DHT22;2451;49.970;9.068;2023-09-12T01:51:53;18.30;99.90
4874;DHT22;2451;49.970;9.068;2023-09-12T01:54:20;18.30;99.90
4874;DHT22;2451;49.970;9.068;2023-09-12T01:56:46;18.30;99.90
4874;DHT22;2451;49.970;9.068;2023-09-12T01:59:12;18.20;99.90
4874;DHT22;2451;49.970;9.068;2023-09-12T02:01:37;18.20;99.90
4874;DHT22;2451;49.970;9.068;2023-09-12T02:04:03;18.30;99.90
4874;DHT22;2451;49.970;9.068;2023-09-12T02:06:36;18.20;99.90
4874;DHT22;2451;49.970;9.068;2023-09-12T02:09:02;18.20;99.90
4874;DHT22;2451;49.970;9.068;2023-09-12T02:11:28;18.10;99.90
4874;DHT22;2451;49.970;9.068;2023-09-12T02:13:53;18.00;99.90
4874;DHT22;2451;49.970;9.068;2023-09-12T02:16:19;18.00;99.90
4874;DHT22;2451;49.970;9.068;2023-09-12T02:18:44;18.00;99.90
4874;DHT22;2451;49.970;9.068;2023-09-12T02:21:10;17.90;99.90
4874;DHT22;2451;49.970;9.068;2023-09-12T02:23:35;17.90;99.90
4874;DHT22;2451;49.970;9.068;2023-09-12T02:26:01;17.90;99.90
4874;DHT22;2451;49.970;9.068;2023-09-12T02:28:26;17.90;99.90
4874;DHT22;2451;49.970;9.068;2023-09-12T02:30:52;17.90;99.90
4874;DHT22;2451;49.970;9.068;2023-09-12T02:33:17;17.90;99.90
4874;DHT22;2451;49.970;9.068;2023-09-12T02:35:43;17.90;99.90
4874;DHT22;2451;49.970;9.068;2023-09-12T02:38:09;17.80;99.90
4874;DHT22;2451;49.970;9.068;2023-09-12T02:40:34;17.80;99.90
4874;DHT22;2451;49.970;9.068;2023-09-12T02:43:00;17.80;99.90
4874;DHT22;2451;49.970;9.068;2023-09-12T02:45:26;17.80;99.90
4874;DHT22;2451;49.970;9.068;2023-09-12T02:47:51;17.80;99.90
4874;DHT22;2451;49.970;9.068;2023-09-12T02:50:17;17.80;99.90
4874;DHT22;2451;49.970;9.068;2023-09-12T02:52:42;17.80;99.90
4874;DHT22;2451;49.970;9.068;2023-09-12T02:55:09;17.70;99.90
4874;DHT22;2451;49.970;9.068;2023-09-12T02:57:34;17.70;99.90
4874;DHT22;2451;49.970;9.068;2023-09-12T03:00:00;17.70;99.90
4874;DHT22;2451;49.970;9.068;2023-09-12T03:02:25;17.70;99.90
4874;DHT22;2451;49.970;9.068;2023-09-12T03:04:51;17.70;99.90
4874;DHT22;2451;49.970;9.068;2023-09-12T03:07:16;17.70;99.90
4874;DHT22;2451;49.970;9.068;2023-09-12T03:09:42;17.70;99.90
4874;DHT22;2451;49.970;9.068;2023-09-12T03:12:07;17.70;99.90
4874;DHT22;2451;49.970;9.068;2023-09-12T03:14:33;17.70;99.90
4874;DHT22;2451;49.970;9.068;2023-09-12T03:16:58;17.60;99.90
4874;DHT22;2451;49.970;9.068;2023-09-12T03:19:24;17.70;99.90
4874;DHT22;2451;49.970;9.068;2023-09-12T03:21:50;17.70;99.90
4874;DHT22;2451;49.970;9.068;2023-09-12T03:24:15;17.70;99.90
4874;DHT22;2451;49.970;9.068;2023-09-12T03:26:43;17.70;99.90
4874;DHT22;2451;49.970;9.068;2023-09-12T03:29:09;17.70;99.90
4874;DHT22;2451;49.970;9.068;2023-09-12T03:31:35;17.70;99.90
4874;DHT22;2451;49.970;9.068;2023-09-12T03:34:01;17.70;99.90
4874;DHT22;2451;49.970;9.068;2023-09-12T03:36:26;17.70;99.90
4874;DHT22;2451;49.970;9.068;2023-09-12T03:38:52;17.70;99.90
4874;DHT22;2451;49.970;9.068;2023-09-12T03:41:18;17.80;99.90
4874;DHT22;2451;49.970;9.068;2023-09-12T03:43:43;17.80;99.90
4874;DHT22;2451;49.970;9.068;2023-09-12T03:46:09;17.80;99.90
4874;DHT22;2451;49.970;9.068;2023-09-12T03:48:34;17.80;99.90
4874;DHT22;2451;49.970;9.068;2023-09-12T03:51:02;17.80;99.90
4874;DHT22;2451;49.970;9.068;2023-09-12T03:53:29;17.80;99.90
4874;DHT22;2451;49.970;9.068;2023-09-12T03:55:54;17.80;99.90
4874;DHT22;2451;49.970;9.068;2023-09-12T03:58:20;17.80;99.90
4874;DHT22;2451;49.970;9.068;2023-09-12T04:00:46;17.80;99.90
4874;DHT22;2451;49.970;9.068;2023-09-12T04:03:11;17.70;99.90
4874;DHT22;2451;49.970;9.068;2023-09-12T04:05:37;17.70;99.90
4874;DHT22;2451;49.970;9.068;2023-09-12T04:08:03;17.70;99.90
4874;DHT22;2451;49.970;9.068;2023-09-12T04:10:28;17.70;99.90
4874;DHT22;2451;49.970;9.068;2023-09-12T04:12:54;17.70;99.90
4874;DHT22;2451;49.970;9.068;2023-09-12T04:15:19;17.70;99.90
4874;DHT22;2451;49.970;9.068;2023-09-12T04:17:45;17.70;99.90
4874;DHT22;2451;49.970;9.068;2023-09-12T04:20:11;17.60;99.90
4874;DHT22;2451;49.970;9.068;2023-09-12T04:22:39;17.60;99.90
4874;DHT22;2451;49.970;9.068;2023-09-12T04:25:05;17.60;99.90
4874;DHT22;2451;49.970;9.068;2023-09-12T04:27:31;17.60;99.90
4874;DHT22;2451;49.970;9.068;2023-09-12T04:29:56;17.70;99.90
4874;DHT22;2451;49.970;9.068;2023-09-12T04:32:22;17.70;99.90
4874;DHT22;2451;49.970;9.068;2023-09-12T04:34:49;17.80;99.90
4874;DHT22;2451;49.970;9.068;2023-09-12T04:37:15;17.80;99.90
4874;DHT22;2451;49.970;9.068;2023-09-12T04:39:40;17.90;99.90
4874;DHT22;2451;49.970;9.068;2023-09-12T04:42:06;18.00;99.90
4874;DHT22;2451;49.970;9.068;2023-09-12T04:44:39;18.00;99.90
4874;DHT22;2451;49.970;9.068;2023-09-12T04:47:04;17.90;99.90
4874;DHT22;2451;49.970;9.068;2023-09-12T04:49:30;17.90;99.90
4874;DHT22;2451;49.970;9.068;2023-09-12T04:51:55;17.80;99.90
4874;DHT22;2451;49.970;9.068;2023-09-12T04:54:21;17.80;99.90
4874;DHT22;2451;49.970;9.068;2023-09-12T04:56:46;17.80;99.90
4874;DHT22;2451;49.970;9.068;2023-09-12T04:59:12;17.70;99.90
4874;DHT22;2451;49.970;9.068;2023-09-12T05:01:38;17.70;99.90
4874;DHT22;2451;49.970;9.068;2023-09-12T05:04:03;17.70;99.90
4874;DHT22;2451;49.970;9.068;2023-09-12T05:06:29;17.80;99.90
4874;DHT22;2451;49.970;9.068;2023-09-12T05:08:55;17.80;99.90
4874;DHT22;2451;49.970;9.068;2023-09-12T05:11:22;17.80;99.90
4874;DHT22;2451;49.970;9.068;2023-09-12T05:13:49;17.90;99.90
4874;DHT22;2451;49.970;9.068;2023-09-12T05:16:15;17.90;99.90
4874;DHT22;2451;49.970;9.068;2023-09-12T05:18:40;18.00;99.90
4874;DHT22;2451;49.970;9.068;2023-09-12T05:21:06;18.00;99.90
4874;DHT22;2451;49.970;9.068;2023-09-12T05:23:31;18.00;99.90
4874;DHT22;2451;49.970;9.068;2023-09-12T05:25:57;18.00;99.90
4874;DHT22;2451;49.970;9.068;2023-09-12T05:28:23;18.00;99.90
4874;DHT22;2451;49.970;9.068;2023-09-12T05:30:48;18.10;99.90
4874;DHT22;2451;49.970;9.068;2023-09-12T05:33:14;18.10;99.90
4874;DHT22;2451;49.970;9.068;2023-09-12T05:35:39;18.10;99.90
4874;DHT22;2451;49.970;9.068;2023-09-12T05:38:05;18.20;99.90
4874;DHT22;2451;49.970;9.068;2023-09-12T05:40:31;18.20;99.90
4874;DHT22;2451;49.970;9.068;2023-09-12T05:42:56;18.20;99.90
4874;DHT22;2451;49.970;9.068;2023-09-12T05:45:22;18.10;99.90
4874;DHT22;2451;49.970;9.068;2023-09-12T05:47:48;18.00;99.90
4874;DHT22;2451;49.970;9.068;2023-09-12T05:50:15;18.10;99.90
4874;DHT22;2451;49.970;9.068;2023-09-12T05:52:41;18.00;99.90
4874;DHT22;2451;49.970;9.068;2023-09-12T05:55:08;18.00;99.90
4874;DHT22;2451;49.970;9.068;2023-09-12T05:57:34;17.90;99.90
4874;DHT22;2451;49.970;9.068;2023-09-12T05:59:59;17.90;99.90
4874;DHT22;2451;49.970;9.068;2023-09-12T06:02:26;17.90;99.90
4874;DHT22;2451;49.970;9.068;2023-09-12T06:04:52;18.00;99.90
4874;DHT22;2451;49.970;9.068;2023-09-12T06:07:17;18.00;99.90
4874;DHT22;2451;49.970;9.068;2023-09-12T06:09:43;18.10;99.90
4874;DHT22;2451;49.970;9.068;2023-09-12T06:12:08;18.10;99.90
4874;DHT22;2451;49.970;9.068;2023-09-12T06:14:34;18.20;99.90
4874;DHT22;2451;49.970;9.068;2023-09-12T06:16:59;18.20;99.90
4874;DHT22;2451;49.970;9.068;2023-09-12T06:19:25;18.30;99.90
4874;DHT22;2451;49.970;9.068;2023-09-12T06:21:50;18.50;99.90
4874;DHT22;2451;49.970;9.068;2023-09-12T06:24:19;18.50;99.90
4874;DHT22;2451;49.970;9.068;2023-09-12T06:26:44;18.50;99.90
4874;DHT22;2451;49.970;9.068;2023-09-12T06:29:10;18.50;99.90
4874;DHT22;2451;49.970;9.068;2023-09-12T06:31:35;18.60;99.90
4874;DHT22;2451;49.970;9.068;2023-09-12T06:34:02;18.60;99.90
4874;DHT22;2451;49.970;9.068;2023-09-12T06:36:28;18.70;99.90
4874;DHT22;2451;49.970;9.068;2023-09-12T06:38:57;18.80;99.90
4874;DHT22;2451;49.970;9.068;2023-09-12T06:41:23;18.80;99.90
4874;DHT22;2451;49.970;9.068;2023-09-12T06:43:48;18.80;99.90
4874;DHT22;2451;49.970;9.068;2023-09-12T06:46:14;18.80;99.90
4874;DHT22;2451;49.970;9.068;2023-09-12T06:48:43;18.80;99.90
4874;DHT22;2451;49.970;9.068;2023-09-12T06:51:09;18.80;99.90
4874;DHT22;2451;49.970;9.068;2023-09-12T06:53:35;18.90;99.90
4874;DHT22;2451;49.970;9.068;2023-09-12T06:56:04;18.90;99.90
4874;DHT22;2451;49.970;9.068;2023-09-12T06:58:30;18.90;99.90
4874;DHT22;2451;49.970;9.068;2023-09-12T07:00:56;19.00;99.90
4874;DHT22;2451;49.970;9.068;2023-09-12T07:03:21;19.10;99.90
4874;DHT22;2451;49.970;9.068;2023-09-12T07:05:48;19.10;99.90
4874;DHT22;2451;49.970;9.068;2023-09-12T07:08:14;19.20;99.90
4874;DHT22;2451;49.970;9.068;2023-09-12T07:10:46;19.30;99.90
4874;DHT22;2451;49.970;9.068;2023-09-12T07:13:11;19.40;99.90
4874;DHT22;2451;49.970;9.068;2023-09-12T07:15:37;19.40;99.90
4874;DHT22;2451;49.970;9.068;2023-09-12T07:18:03;19.50;99.90
4874;DHT22;2451;49.970;9.068;2023-09-12T07:20:29;19.60;99.90
4874;DHT22;2451;49.970;9.068;2023-09-12T07:22:55;19.60;99.90
4874;DHT22;2451;49.970;9.068;2023-09-12T07:25:21;19.80;99.90
4874;DHT22;2451;49.970;9.068;2023-09-12T07:27:49;20.00;99.90
4874;DHT22;2451;49.970;9.068;2023-09-12T07:30:15;20.10;99.90
4874;DHT22;2451;49.970;9.068;2023-09-12T07:32:40;20.30;99.90
4874;DHT22;2451;49.970;9.068;2023-09-12T07:35:06;20.60;99.90
4874;DHT22;2451;49.970;9.068;2023-09-12T07:37:32;20.90;99.90
4874;DHT22;2451;49.970;9.068;2023-09-12T07:39:57;21.30;99.90
4874;DHT22;2451;49.970;9.068;2023-09-12T07:42:23;21.70;99.90
4874;DHT22;2451;49.970;9.068;2023-09-12T07:44:49;22.10;99.90
4874;DHT22;2451;49.970;9.068;2023-09-12T07:47:14;22.40;99.90
4874;DHT22;2451;49.970;9.068;2023-09-12T07:49:41;22.80;99.90
4874;DHT22;2451;49.970;9.068;2023-09-12T07:52:06;23.00;99.90
4874;DHT22;2451;49.970;9.068;2023-09-12T07:54:32;23.10;99.90
4874;DHT22;2451;49.970;9.068;2023-09-12T07:56:58;23.10;99.90
4874;DHT22;2451;49.970;9.068;2023-09-12T07:59:24;23.00;99.90
4874;DHT22;2451;49.970;9.068;2023-09-12T08:01:49;23.00;99.90
4874;DHT22;2451;49.970;9.068;2023-09-12T08:04:15;23.20;99.90
4874;DHT22;2451;49.970;9.068;2023-09-12T08:06:41;23.50;99.90
4874;DHT22;2451;49.970;9.068;2023-09-12T08:09:07;23.80;99.90
4874;DHT22;2451;49.970;9.068;2023-09-12T08:11:33;24.00;99.90
4874;DHT22;2451;49.970;9.068;2023-09-12T08:13:59;24.10;99.90
4874;DHT22;2451;49.970;9.068;2023-09-12T08:16:24;24.30;99.90
4874;DHT22;2451;49.970;9.068;2023-09-12T08:18:50;24.40;99.90
4874;DHT22;2451;49.970;9.068;2023-09-12T08:21:15;24.60;99.90
4874;DHT22;2451;49.970;9.068;2023-09-12T08:23:41;24.80;99.90
4874;DHT22;2451;49.970;9.068;2023-09-12T08:26:06;24.90;99.90
4874;DHT22;2451;49.970;9.068;2023-09-12T08:28:32;24.90;99.90
4874;DHT22;2451;49.970;9.068;2023-09-12T08:30:58;24.90;99.90
4874;DHT22;2451;49.970;9.068;2023-09-12T08:33:23;24.90;99.90
4874;DHT22;2451;49.970;9.068;2023-09-12T08:35:49;25.00;99.90
4874;DHT22;2451;49.970;9.068;2023-09-12T08:38:15;25.00;99.90
4874;DHT22;2451;49.970;9.068;2023-09-12T08:40:48;25.20;99.90
4874;DHT22;2451;49.970;9.068;2023-09-12T08:43:14;25.30;99.90
4874;DHT22;2451;49.970;9.068;2023-09-12T08:45:40;25.40;99.90
4874;DHT22;2451;49.970;9.068;2023-09-12T08:48:07;25.40;99.90
4874;DHT22;2451;49.970;9.068;2023-09-12T08:50:32;25.50;99.90
4874;DHT22;2451;49.970;9.068;2023-09-12T08:52:59;25.60;99.90
4874;DHT22;2451;49.970;9.068;2023-09-12T08:55:25;25.90;99.90
4874;DHT22;2451;49.970;9.068;2023-09-12T08:57:52;26.20;99.90
4874;DHT22;2451;49.970;9.068;2023-09-12T09:00:19;26.50;99.90
4874;DHT22;2451;49.970;9.068;2023-09-12T09:02:46;26.80;99.90
4874;DHT22;2451;49.970;9.068;2023-09-12T09:05:13;27.10;99.90
4874;DHT22;2451;49.970;9.068;2023-09-12T09:07:40;27.40;99.90
4874;DHT22;2451;49.970;9.068;2023-09-12T09:10:09;27.80;99.90
4874;DHT22;2451;49.970;9.068;2023-09-12T09:12:37;28.10;99.90
4874;DHT22;2451;49.970;9.068;2023-09-12T09:15:40;28.30;99.90
4874;DHT22;2451;49.970;9.068;2023-09-12T09:18:06;28.30;99.90
4874;DHT22;2451;49.970;9.068;2023-09-12T09:20:34;28.30;99.90
4874;DHT22;2451;49.970;9.068;2023-09-12T09:23:07;28.30;99.90
4874;DHT22;2451;49.970;9.068;2023-09-12T09:25:39;28.40;99.90
4874;DHT22;2451;49.970;9.068;2023-09-12T09:28:18;28.50;99.90
4874;DHT22;2451;49.970;9.068;2023-09-12T09:30:46;28.70;99.90
4874;DHT22;2451;49.970;9.068;2023-09-12T09:33:13;28.90;99.90
4874;DHT22;2451;49.970;9.068;2023-09-12T09:35:41;28.80;99.90
4874;DHT22;2451;49.970;9.068;2023-09-12T09:38:08;28.80;99.90
4874;DHT22;2451;49.970;9.068;2023-09-12T09:40:34;28.90;99.90
4874;DHT22;2451;49.970;9.068;2023-09-12T09:43:02;29.00;99.90
4874;DHT22;2451;49.970;9.068;2023-09-12T09:45:31;29.20;99.90
4874;DHT22;2451;49.970;9.068;2023-09-12T09:48:07;29.40;99.90
4874;DHT22;2451;49.970;9.068;2023-09-12T09:50:34;29.60;99.90
4874;DHT22;2451;49.970;9.068;2023-09-12T09:53:02;29.70;99.90
4874;DHT22;2451;49.970;9.068;2023-09-12T09:55:30;29.90;99.90
4874;DHT22;2451;49.970;9.068;2023-09-12T09:57:55;29.90;99.90
4874;DHT22;2451;49.970;9.068;2023-09-12T10:00:22;30.00;99.90
4874;DHT22;2451;49.970;9.068;2023-09-12T10:02:50;30.30;99.80
4874;DHT22;2451;49.970;9.068;2023-09-12T10:05:17;30.60;99.40
4874;DHT22;2451;49.970;9.068;2023-09-12T10:07:46;30.90;98.40
4874;DHT22;2451;49.970;9.068;2023-09-12T10:10:12;31.10;97.40
4874;DHT22;2451;49.970;9.068;2023-09-12T10:12:48;31.40;97.50
4874;DHT22;2451;49.970;9.068;2023-09-12T10:15:14;31.50;95.60
4874;DHT22;2451;49.970;9.068;2023-09-12T10:17:42;31.50;95.10
4874;DHT22;2451;49.970;9.068;2023-09-12T10:20:15;31.70;94.60
4874;DHT22;2451;49.970;9.068;2023-09-12T10:22:57;31.70;93.90
4874;DHT22;2451;49.970;9.068;2023-09-12T10:25:24;31.80;93.80
4874;DHT22;2451;49.970;9.068;2023-09-12T10:27:49;32.00;93.50
4874;DHT22;2451;49.970;9.068;2023-09-12T10:30:16;31.80;93.50
4874;DHT22;2451;49.970;9.068;2023-09-12T10:32:45;31.90;94.20
4874;DHT22;2451;49.970;9.068;2023-09-12T10:35:12;32.20;94.00
4874;DHT22;2451;49.970;9.068;2023-09-12T10:37:38;32.60;94.80
4874;DHT22;2451;49.970;9.068;2023-09-12T10:40:05;32.70;93.10
4874;DHT22;2451;49.970;9.068;2023-09-12T10:42:33;33.00;93.10
4874;DHT22;2451;49.970;9.068;2023-09-12T10:45:00;33.00;90.90
4874;DHT22;2451;49.970;9.068;2023-09-12T10:47:29;33.30;91.40
4874;DHT22;2451;49.970;9.068;2023-09-12T10:49:56;33.30;91.30
4874;DHT22;2451;49.970;9.068;2023-09-12T10:52:29;33.60;91.50
4874;DHT22;2451;49.970;9.068;2023-09-12T10:54:55;33.70;92.20
4874;DHT22;2451;49.970;9.068;2023-09-12T10:57:21;33.90;88.70
4874;DHT22;2451;49.970;9.068;2023-09-12T11:02:32;33.80;88.20
4874;DHT22;2451;49.970;9.068;2023-09-12T11:05:02;33.80;87.30
4874;DHT22;2451;49.970;9.068;2023-09-12T11:12:43;34.10;88.30
4874;DHT22;2451;49.970;9.068;2023-09-12T11:15:09;34.10;87.00
4874;DHT22;2451;49.970;9.068;2023-09-12T11:17:39;33.80;88.90
4874;DHT22;2451;49.970;9.068;2023-09-12T11:20:06;33.60;90.60
4874;DHT22;2451;49.970;9.068;2023-09-12T11:22:36;33.50;90.10
4874;DHT22;2451;49.970;9.068;2023-09-12T11:25:05;33.70;87.70
4874;DHT22;2451;49.970;9.068;2023-09-12T11:27:32;34.00;88.00
4874;DHT22;2451;49.970;9.068;2023-09-12T11:30:05;34.30;86.70
4874;DHT22;2451;49.970;9.068;2023-09-12T11:32:32;34.50;88.20
4874;DHT22;2451;49.970;9.068;2023-09-12T11:35:05;34.70;85.50
4874;DHT22;2451;49.970;9.068;2023-09-12T11:37:32;34.70;84.70
4874;DHT22;2451;49.970;9.068;2023-09-12T11:39:59;34.60;82.10
4874;DHT22;2451;49.970;9.068;2023-09-12T11:42:25;34.60;84.60
4874;DHT22;2451;49.970;9.068;2023-09-12T11:44:51;34.50;85.50
4874;DHT22;2451;49.970;9.068;2023-09-12T11:47:17;34.40;83.80
4874;DHT22;2451;49.970;9.068;2023-09-12T11:49:43;34.40;88.40
4874;DHT22;2451;49.970;9.068;2023-09-12T11:52:13;34.50;86.50
4874;DHT22;2451;49.970;9.068;2023-09-12T11:54:40;34.30;85.10
4874;DHT22;2451;49.970;9.068;2023-09-12T11:57:09;34.40;84.00
4874;DHT22;2451;49.970;9.068;2023-09-12T11:59:43;34.50;83.10
4874;DHT22;2451;49.970;9.068;2023-09-12T12:02:11;34.60;81.90
4874;DHT22;2451;49.970;9.068;2023-09-12T12:04:37;34.40;82.80
4874;DHT22;2451;49.970;9.068;2023-09-12T12:07:03;34.30;85.40
4874;DHT22;2451;49.970;9.068;2023-09-12T12:09:32;34.30;84.20
4874;DHT22;2451;49.970;9.068;2023-09-12T12:12:12;34.40;82.50
4874;DHT22;2451;49.970;9.068;2023-09-12T12:14:39;34.60;86.80
4874;DHT22;2451;49.970;9.068;2023-09-12T12:17:09;34.60;82.70
4874;DHT22;2451;49.970;9.068;2023-09-12T12:19:35;34.50;84.80
4874;DHT22;2451;49.970;9.068;2023-09-12T12:22:03;34.60;86.00
4874;DHT22;2451;49.970;9.068;2023-09-12T12:24:37;34.20;87.90
4874;DHT22;2451;49.970;9.068;2023-09-12T12:27:03;34.10;86.00
4874;DHT22;2451;49.970;9.068;2023-09-12T12:29:30;34.20;86.80
4874;DHT22;2451;49.970;9.068;2023-09-12T12:32:00;34.20;90.00
4874;DHT22;2451;49.970;9.068;2023-09-12T12:34:27;33.90;86.20
4874;DHT22;2451;49.970;9.068;2023-09-12T12:36:54;33.70;87.70
4874;DHT22;2451;49.970;9.068;2023-09-12T12:39:20;33.90;87.30
4874;DHT22;2451;49.970;9.068;2023-09-12T12:41:46;33.70;87.90
4874;DHT22;2451;49.970;9.068;2023-09-12T12:44:12;33.50;87.90
4874;DHT22;2451;49.970;9.068;2023-09-12T12:46:52;33.60;88.00
4874;DHT22;2451;49.970;9.068;2023-09-12T12:49:21;33.80;88.60
4874;DHT22;2451;49.970;9.068;2023-09-12T12:51:48;33.80;88.90
4874;DHT22;2451;49.970;9.068;2023-09-12T12:54:14;33.80;88.00
4874;DHT22;2451;49.970;9.068;2023-09-12T12:56:41;34.10;89.50
4874;DHT22;2451;49.970;9.068;2023-09-12T12:59:08;34.40;88.30
4874;DHT22;2451;49.970;9.068;2023-09-12T13:01:37;34.70;89.70
4874;DHT22;2451;49.970;9.068;2023-09-12T13:04:07;34.90;87.40
4874;DHT22;2451;49.970;9.068;2023-09-12T13:06:33;35.10;85.60
4874;DHT22;2451;49.970;9.068;2023-09-12T13:09:02;35.20;85.80
4874;DHT22;2451;49.970;9.068;2023-09-12T13:11:30;35.20;82.60
4874;DHT22;2451;49.970;9.068;2023-09-12T13:13:55;35.40;85.00
4874;DHT22;2451;49.970;9.068;2023-09-12T13:16:21;35.40;85.30
4874;DHT22;2451;49.970;9.068;2023-09-12T13:18:47;35.30;82.60
4874;DHT22;2451;49.970;9.068;2023-09-12T13:21:12;35.30;82.70
4874;DHT22;2451;49.970;9.068;2023-09-12T13:23:38;35.30;84.20
4874;DHT22;2451;49.970;9.068;2023-09-12T13:26:06;35.10;81.40
4874;DHT22;2451;49.970;9.068;2023-09-12T13:28:31;34.80;80.70
4874;DHT22;2451;49.970;9.068;2023-09-12T13:30:57;34.70;80.80
4874;DHT22;2451;49.970;9.068;2023-09-12T13:33:23;34.50;82.70
4874;DHT22;2451;49.970;9.068;2023-09-12T13:35:49;34.60;83.10
4874;DHT22;2451;49.970;9.068;2023-09-12T13:38:15;34.60;82.20
4874;DHT22;2451;49.970;9.068;2023-09-12T13:40:43;34.70;85.50
4874;DHT22;2451;49.970;9.068;2023-09-12T13:43:08;34.50;85.20
4874;DHT22;2451;49.970;9.068;2023-09-12T13:45:34;34.50;85.00
4874;DHT22;2451;49.970;9.068;2023-09-12T13:48:00;34.40;87.00
4874;DHT22;2451;49.970;9.068;2023-09-12T13:50:27;34.30;85.80
4874;DHT22;2451;49.970;9.068;2023-09-12T13:52:58;34.30;84.70
4874;DHT22;2451;49.970;9.068;2023-09-12T13:55:33;34.30;86.60
4874;DHT22;2451;49.970;9.068;2023-09-12T13:57:59;34.00;83.80
4874;DHT22;2451;49.970;9.068;2023-09-12T14:00:24;33.80;84.10
4874;DHT22;2451;49.970;9.068;2023-09-12T14:02:50;33.70;85.70
4874;DHT22;2451;49.970;9.068;2023-09-12T14:05:16;33.20;87.60
4874;DHT22;2451;49.970;9.068;2023-09-12T14:07:41;33.30;88.80
4874;DHT22;2451;49.970;9.068;2023-09-12T14:10:07;33.30;89.00
4874;DHT22;2451;49.970;9.068;2023-09-12T14:12:33;33.20;87.40
4874;DHT22;2451;49.970;9.068;2023-09-12T14:14:59;33.10;89.20
4874;DHT22;2451;49.970;9.068;2023-09-12T14:17:24;33.00;90.20
4874;DHT22;2451;49.970;9.068;2023-09-12T14:19:50;32.80;88.50
4874;DHT22;2451;49.970;9.068;2023-09-12T14:22:15;32.70;87.60
4874;DHT22;2451;49.970;9.068;2023-09-12T14:24:41;32.40;88.30
4874;DHT22;2451;49.970;9.068;2023-09-12T14:27:07;32.20;89.00
4874;DHT22;2451;49.970;9.068;2023-09-12T14:29:32;32.20;90.10
4874;DHT22;2451;49.970;9.068;2023-09-12T14:31:58;32.40;90.20
4874;DHT22;2451;49.970;9.068;2023-09-12T14:34:24;32.50;87.70
4874;DHT22;2451;49.970;9.068;2023-09-12T14:36:53;32.80;87.30
4874;DHT22;2451;49.970;9.068;2023-09-12T14:39:20;33.00;89.30
4874;DHT22;2451;49.970;9.068;2023-09-12T14:41:45;33.20;89.60
4874;DHT22;2451;49.970;9.068;2023-09-12T14:44:15;33.40;85.50
4874;DHT22;2451;49.970;9.068;2023-09-12T14:46:40;33.50;86.80
4874;DHT22;2451;49.970;9.068;2023-09-12T14:49:06;33.60;86.20
4874;DHT22;2451;49.970;9.068;2023-09-12T14:51:31;33.60;85.70
4874;DHT22;2451;49.970;9.068;2023-09-12T14:53:57;33.70;83.70
4874;DHT22;2451;49.970;9.068;2023-09-12T14:56:22;33.70;87.50
4874;DHT22;2451;49.970;9.068;2023-09-12T14:58:49;33.50;85.90
4874;DHT22;2451;49.970;9.068;2023-09-12T15:01:14;33.30;84.50
4874;DHT22;2451;49.970;9.068;2023-09-12T15:03:40;33.30;86.40
4874;DHT22;2451;49.970;9.068;2023-09-12T15:06:05;33.30;86.60
4874;DHT22;2451;49.970;9.068;2023-09-12T15:08:32;33.00;83.60
4874;DHT22;2451;49.970;9.068;2023-09-12T15:10:57;32.80;83.80
4874;DHT22;2451;49.970;9.068;2023-09-12T15:13:23;32.80;85.80
4874;DHT22;2451;49.970;9.068;2023-09-12T15:15:49;32.60;86.60
4874;DHT22;2451;49.970;9.068;2023-09-12T15:18:14;32.50;88.50
4874;DHT22;2451;49.970;9.068;2023-09-12T15:20:40;32.30;89.20
4874;DHT22;2451;49.970;9.068;2023-09-12T15:23:05;32.00;87.80
4874;DHT22;2451;49.970;9.068;2023-09-12T15:25:31;31.70;89.00
4874;DHT22;2451;49.970;9.068;2023-09-12T15:27:58;31.40;90.70
4874;DHT22;2451;49.970;9.068;2023-09-12T15:30:23;31.20;88.50
4874;DHT22;2451;49.970;9.068;2023-09-12T15:32:49;31.00;90.50
4874;DHT22;2451;49.970;9.068;2023-09-12T15:35:14;30.80;90.00
4874;DHT22;2451;49.970;9.068;2023-09-12T15:37:40;30.60;90.30
4874;DHT22;2451;49.970;9.068;2023-09-12T15:40:06;30.50;92.00
4874;DHT22;2451;49.970;9.068;2023-09-12T15:42:32;30.50;93.50
4874;DHT22;2451;49.970;9.068;2023-09-12T15:44:57;30.70;94.10
4874;DHT22;2451;49.970;9.068;2023-09-12T15:47:23;30.70;95.70
4874;DHT22;2451;49.970;9.068;2023-09-12T15:49:48;30.80;95.00
4874;DHT22;2451;49.970;9.068;2023-09-12T15:52:14;30.90;94.60
4874;DHT22;2451;49.970;9.068;2023-09-12T15:54:39;30.90;95.00
4874;DHT22;2451;49.970;9.068;2023-09-12T15:57:05;30.90;94.60
4874;DHT22;2451;49.970;9.068;2023-09-12T15:59:31;30.90;93.50
4874;DHT22;2451;49.970;9.068;2023-09-12T16:01:56;30.80;95.30
4874;DHT22;2451;49.970;9.068;2023-09-12T16:04:22;30.80;95.80
4874;DHT22;2451;49.970;9.068;2023-09-12T16:06:49;30.80;96.30
4874;DHT22;2451;49.970;9.068;2023-09-12T16:09:15;30.70;96.60